Terminal Aerodrome Forecast
Issued by NWS

Home | Current Version | Previous Version | Text Only | Print | Product List | Glossary On
Versions: 1 2 3 4 5 6 7 8 9 10 11 12 13 14 15 16 17 18 19 20 21
000
FTUS43 KSGF 301122
TAFBBG
TAF
KBBG 301122Z 3012/3112 07004KT 4SM BR SCT003 SCT040
      TEMPO 3012/3013 1SM BR
     FM301330 VRB04KT P6SM FEW040 SCT120
     FM301800 33005KT P6SM SCT050 SCT250
     FM310000 00000KT P6SM SCT250
     FM310900 00000KT P6SM SCT100 BKN200=

USA.gov is the U.S. government's official web portal to all federal, state and local government web resources and services.